Time;durP1;ratioP1;P1;durP2;ratioP2;P2;SDS_P1;SDS_P2;PMS_P1;PMS_P2;Temp;Humidity;BMP_temperature;BMP_pressure;BME280_temperature;BME280_humidity;BME280_pressure;Samples;Min_cycle;Max_cycle;Signal;HPM_P1;HPM_P2
2023/07/22 00:00:18;;;;;;;7.40;4.75;;;;;;;11.00;100.00;100622.94;690504;28;920;-68
2023/07/22 00:00:40;;;;;;;8.25;5.05;;;;;;;11.00;100.00;100628.19;686178;28;1577;-68
2023/07/22 00:01:00;;;;;;;9.00;5.40;;;;;;;11.00;100.00;100630.81;685971;28;4319;-68
2023/07/22 00:01:21;;;;;;;8.57;5.23;;;;;;;11.00;100.00;100622.94;687490;28;1086;-69
2023/07/22 00:01:41;;;;;;;8.23;5.25;;;;;;;11.00;100.00;100628.19;686942;28;904;-68
2023/07/22 00:02:02;;;;;;;8.30;5.47;;;;;;;10.99;100.00;100626.44;686825;28;1694;-68
2023/07/22 00:02:22;;;;;;;7.95;5.22;;;;;;;10.97;100.00;100629.06;688186;28;773;-68
2023/07/22 00:02:43;;;;;;;9.03;5.30;;;;;;;10.96;100.00;100627.31;689703;28;920;-68
2023/07/22 00:03:03;;;;;;;9.38;5.07;;;;;;;10.95;100.00;100627.34;689197;28;1535;-68
2023/07/22 00:03:24;;;;;;;8.77;5.00;;;;;;;10.91;100.00;100621.28;690715;28;1260;-69
2023/07/22 00:03:44;;;;;;;8.40;5.15;;;;;;;10.86;100.00;100625.66;689957;28;895;-68
2023/07/22 00:04:04;;;;;;;7.20;4.57;;;;;;;10.87;100.00;100628.25;688786;28;4339;-68
2023/07/22 00:04:25;;;;;;;8.52;4.85;;;;;;;10.89;100.00;100634.34;690667;28;920;-68
2023/07/22 00:04:46;;;;;;;7.47;4.88;;;;;;;10.87;100.00;100625.66;690041;28;1019;-68
2023/07/22 00:05:07;;;;;;;7.30;5.10;;;;;;;10.89;100.00;100629.09;689534;28;1582;-68
2023/07/22 00:05:28;;;;;;;8.02;5.20;;;;;;;10.88;100.00;100629.13;690502;28;907;-69
2023/07/22 00:05:48;;;;;;;8.13;4.73;;;;;;;10.87;100.00;100636.13;689001;28;1585;-68
2023/07/22 00:06:10;;;;;;;9.07;4.97;;;;;;;10.88;100.00;100626.50;690657;28;895;-69
2023/07/22 00:06:30;;;;;;;8.75;5.15;;;;;;;10.94;100.00;100626.47;690536;28;1031;-68
2023/07/22 00:06:51;;;;;;;9.35;5.30;;;;;;;10.97;100.00;100631.69;688296;28;4310;-68
2023/07/22 00:07:12;;;;;;;7.55;4.80;;;;;;;10.95;100.00;100629.94;690505;28;1018;-68
2023/07/22 00:07:33;;;;;;;7.57;4.87;;;;;;;10.96;100.00;100631.69;690915;28;848;-69
2023/07/22 00:07:53;;;;;;;9.27;5.78;;;;;;;10.97;100.00;100630.81;688906;28;1422;-69
2023/07/22 00:08:14;;;;;;;8.37;5.30;;;;;;;10.96;100.00;100629.09;689851;28;1023;-68
2023/07/22 00:08:35;;;;;;;8.20;4.90;;;;;;;10.96;100.00;100636.94;687520;28;1109;-69
2023/07/22 00:08:55;;;;;;;8.15;4.97;;;;;;;10.95;100.00;100632.56;681465;28;1489;-69
2023/07/22 00:09:16;;;;;;;8.43;4.80;;;;;;;10.94;100.00;100630.81;682642;28;1059;-69
2023/07/22 00:09:38;;;;;;;8.20;4.97;;;;;;;10.92;100.00;100629.97;683678;28;1260;-69
2023/07/22 00:09:59;;;;;;;7.93;4.40;;;;;;;10.93;100.00;100635.19;681124;28;4352;-68
2023/07/22 00:10:19;;;;;;;7.47;4.22;;;;;;;10.92;100.00;100632.59;683539;28;889;-69
2023/07/22 00:10:42;;;;;;;6.87;4.40;;;;;;;10.90;100.00;100630.00;688244;28;940;-69
2023/07/22 00:11:03;;;;;;;7.95;4.93;;;;;;;10.88;100.00;100626.50;688607;28;1528;-68
2023/07/22 00:11:24;;;;;;;7.78;4.75;;;;;;;10.86;100.00;100631.75;690459;28;940;-68
2023/07/22 00:11:44;;;;;;;8.20;5.00;;;;;;;10.85;100.00;100629.16;690621;28;793;-68
2023/07/22 00:12:05;;;;;;;8.30;5.07;;;;;;;10.83;100.00;100634.41;688908;28;1626;-68
2023/07/22 00:12:25;;;;;;;7.70;4.82;;;;;;;10.81;100.00;100632.66;690474;28;935;-68
2023/07/22 00:12:46;;;;;;;8.30;4.97;;;;;;;10.79;100.00;100632.66;690422;28;1125;-68
2023/07/22 00:13:07;;;;;;;9.27;5.10;;;;;;;10.79;100.00;100634.44;688265;28;4298;-68
2023/07/22 00:13:27;;;;;;;8.70;4.90;;;;;;;10.78;100.00;100632.69;690371;28;869;-68
2023/07/22 00:13:48;;;;;;;8.23;4.70;;;;;;;10.79;100.00;100634.44;690238;28;865;-68
2023/07/22 00:14:09;;;;;;;7.27;4.67;;;;;;;10.79;100.00;100637.91;689191;28;876;-68
2023/07/22 00:14:30;;;;;;;8.02;5.00;;;;;;;10.80;100.00;100634.41;690430;28;809;-68
2023/07/22 00:14:51;;;;;;;7.65;4.82;;;;;;;10.81;100.00;100630.91;689357;28;1550;-68
2023/07/22 00:15:11;;;;;;;7.22;4.57;;;;;;;10.82;100.00;100632.66;689656;28;1535;-68
2023/07/22 00:15:32;;;;;;;7.43;4.90;;;;;;;10.82;100.00;100635.25;690370;28;883;-68
2023/07/22 00:15:56;;;;;;;7.50;4.43;;;;;;;10.80;100.00;100633.53;689024;28;4488;-68
2023/07/22 00:16:17;;;;;;;8.07;4.57;;;;;;;10.79;100.00;100624.81;689417;28;884;-68
2023/07/22 00:16:37;;;;;;;7.60;4.75;;;;;;;10.81;100.00;100635.28;689222;28;3358;-69
2023/07/22 00:16:58;;;;;;;7.67;4.83;;;;;;;10.81;100.00;100628.28;690102;28;1505;-68
2023/07/22 00:17:19;;;;;;;7.82;4.88;;;;;;;10.82;100.00;100632.66;690028;28;1027;-69
2023/07/22 00:17:41;;;;;;;7.73;4.80;;;;;;;10.87;100.00;100630.88;690356;28;1140;-69
2023/07/22 00:18:01;;;;;;;7.38;4.65;;;;;;;10.87;100.00;100625.66;689325;28;1464;-68
2023/07/22 00:18:23;;;;;;;7.10;4.63;;;;;;;10.89;100.00;100623.88;689321;28;901;-68
2023/07/22 00:18:44;;;;;;;7.72;4.60;;;;;;;10.92;100.00;100633.47;690379;28;1252;-68
2023/07/22 00:19:04;;;;;;;7.70;4.85;;;;;;;10.90;100.00;100632.63;688429;28;4359;-68
2023/07/22 00:19:24;;;;;;;8.57;5.00;;;;;;;10.86;100.00;100629.13;690053;28;943;-68
2023/07/22 00:19:45;;;;;;;7.93;4.73;;;;;;;10.87;100.00;100623.03;690955;28;959;-68
2023/07/22 00:20:06;;;;;;;7.85;4.70;;;;;;;10.87;100.00;100633.50;689985;28;1480;-69
2023/07/22 00:20:27;;;;;;;7.90;4.55;;;;;;;10.94;100.00;100628.22;689959;28;1225;-68
2023/07/22 00:20:47;;;;;;;8.17;4.93;;;;;;;10.97;100.00;100628.22;690860;28;963;-68
2023/07/22 00:21:08;;;;;;;8.23;4.97;;;;;;;10.96;100.00;100629.09;690145;28;1476;-68
2023/07/22 00:21:29;;;;;;;8.18;5.00;;;;;;;10.93;100.00;100626.50;690699;28;1027;-68
2023/07/22 00:21:49;;;;;;;7.50;5.10;;;;;;;10.94;100.00;100625.59;689895;28;1494;-68
2023/07/22 00:22:09;;;;;;;8.17;5.03;;;;;;;10.92;100.00;100628.22;690487;28;4410;-68
2023/07/22 00:22:31;;;;;;;8.30;4.80;;;;;;;10.93;100.00;100629.97;690248;28;998;-69
2023/07/22 00:22:52;;;;;;;7.35;4.90;;;;;;;10.90;100.00;100628.25;689986;28;1630;-69
2023/07/22 00:23:12;;;;;;;7.80;5.00;;;;;;;10.93;100.00;100623.88;691130;28;900;-68
2023/07/22 00:23:33;;;;;;;7.70;5.03;;;;;;;10.92;100.00;100628.22;690669;28;927;-68
2023/07/22 00:23:53;;;;;;;7.53;5.07;;;;;;;10.91;100.00;100629.13;690144;28;1444;-70
2023/07/22 00:24:14;;;;;;;8.40;5.25;;;;;;;10.88;100.00;100622.16;691072;28;1070;-69
2023/07/22 00:24:35;;;;;;;7.97;5.10;;;;;;;10.87;100.00;100628.25;690265;28;1967;-68
2023/07/22 00:24:55;;;;;;;8.10;5.07;;;;;;;10.88;100.00;100622.16;685917;28;4350;-68
2023/07/22 00:25:15;;;;;;;9.73;4.97;;;;;;;10.90;100.00;100623.00;687182;28;841;-69
2023/07/22 00:25:36;;;;;;;7.93;4.83;;;;;;;10.89;100.00;100626.50;686097;28;889;-69
2023/07/22 00:25:56;;;;;;;7.57;4.90;;;;;;;10.90;100.00;100625.63;685754;28;1543;-69
2023/07/22 00:26:16;;;;;;;7.30;5.00;;;;;;;10.92;100.00;100625.59;685755;28;1263;-68
2023/07/22 00:26:37;;;;;;;7.87;5.23;;;;;;;10.94;100.00;100623.88;685492;28;1328;-69
2023/07/22 00:26:57;;;;;;;7.78;4.93;;;;;;;10.95;100.00;100629.94;684073;28;1484;-68
2023/07/22 00:27:18;;;;;;;8.93;4.93;;;;;;;10.96;100.00;100627.31;685536;28;1311;-68
2023/07/22 00:27:39;;;;;;;8.63;5.20;;;;;;;10.95;100.00;100628.22;685896;28;976;-68
2023/07/22 00:28:00;;;;;;;8.07;4.82;;;;;;;10.96;100.00;100634.31;683518;28;4382;-68
2023/07/22 00:28:20;;;;;;;7.45;4.97;;;;;;;10.99;100.00;100623.81;685171;28;830;-69
2023/07/22 00:28:41;;;;;;;8.67;5.23;;;;;;;10.94;100.00;100621.25;686803;28;775;-68
2023/07/22 00:29:02;;;;;;;9.07;5.10;;;;;;;10.92;100.00;100623.00;689238;28;1429;-68
2023/07/22 00:29:22;;;;;;;8.57;4.90;;;;;;;10.90;100.00;100616.91;689445;28;1074;-68
2023/07/22 00:29:43;;;;;;;8.07;5.20;;;;;;;10.86;100.00;100625.66;688175;28;1354;-67
2023/07/22 00:30:05;;;;;;;7.90;5.30;;;;;;;10.83;100.00;100628.31;686044;28;1475;-68
2023/07/22 00:30:28;;;;;;;7.45;5.13;;;;;;;10.75;100.00;100622.25;687620;28;825;-69
2023/07/22 00:30:49;;;;;;;8.20;5.38;;;;;;;10.69;100.00;100612.72;683451;28;1417;-69
2023/07/22 00:31:09;;;;;;;8.35;5.05;;;;;;;10.65;100.00;100616.22;686698;28;5186;-68
2023/07/22 00:31:29;;;;;;;7.43;4.87;;;;;;;10.63;100.00;100613.59;688670;28;823;-69
2023/07/22 00:31:50;;;;;;;6.73;4.60;;;;;;;10.61;100.00;100619.72;688576;28;1534;-68
2023/07/22 00:32:10;;;;;;;7.57;5.23;;;;;;;10.59;100.00;100624.94;690110;28;928;-68
2023/07/22 00:32:31;;;;;;;7.82;5.28;;;;;;;10.55;100.00;100613.63;690602;28;1408;-70
2023/07/22 00:32:51;;;;;;;8.77;5.40;;;;;;;10.55;100.00;100616.25;686632;28;1523;-68
2023/07/22 00:33:13;;;;;;;8.90;5.35;;;;;;;10.57;100.00;100616.25;686292;28;1333;-68
2023/07/22 00:33:33;;;;;;;8.52;5.30;;;;;;;10.59;100.00;100613.63;687516;28;913;-68
2023/07/22 00:33:54;;;;;;;7.93;5.00;;;;;;;10.62;100.00;100618.81;686808;28;4534;-69
2023/07/22 00:34:14;;;;;;;7.43;4.70;;;;;;;10.65;100.00;100616.22;684704;28;1166;-68
2023/07/22 00:34:36;;;;;;;7.75;5.20;;;;;;;10.67;100.00;100611.84;685377;28;1012;-68
2023/07/22 00:34:57;;;;;;;7.95;5.05;;;;;;;10.68;100.00;100621.41;685016;28;1458;-67
2023/07/22 00:35:17;;;;;;;8.03;5.37;;;;;;;10.66;100.00;100616.19;687761;28;751;-68
2023/07/22 00:35:37;;;;;;;8.27;5.40;;;;;;;10.65;100.00;100618.81;685454;28;1236;-68
2023/07/22 00:35:58;;;;;;;8.73;5.30;;;;;;;10.66;100.00;100620.53;685019;28;1564;-68
2023/07/22 00:36:18;;;;;;;8.35;5.30;;;;;;;10.63;100.00;100612.72;684918;28;1230;-68
2023/07/22 00:36:38;;;;;;;8.30;5.17;;;;;;;10.63;100.00;100617.94;685557;28;1346;-68
2023/07/22 00:36:59;;;;;;;7.93;5.10;;;;;;;10.62;100.00;100618.81;686420;28;4491;-68
2023/07/22 00:37:19;;;;;;;8.33;5.30;;;;;;;10.61;100.00;100623.19;687259;28;1208;-68
2023/07/22 00:37:40;;;;;;;8.60;5.30;;;;;;;10.65;100.00;100621.44;688089;28;1236;-68
2023/07/22 00:38:01;;;;;;;8.50;5.30;;;;;;;10.72;100.00;100617.91;687153;28;1709;-68
2023/07/22 00:38:22;;;;;;;10.05;5.40;;;;;;;10.73;100.00;100617.03;687260;28;917;-69
2023/07/22 00:38:42;;;;;;;8.07;5.15;;;;;;;10.71;100.00;100618.78;687926;28;952;-68
2023/07/22 00:39:02;;;;;;;8.30;5.13;;;;;;;10.71;100.00;100621.41;684402;28;5168;-68
2023/07/22 00:39:23;;;;;;;8.53;5.37;;;;;;;10.66;100.00;100615.31;687508;28;1220;-68
2023/07/22 00:39:43;;;;;;;8.97;5.10;;;;;;;10.68;100.00;100616.19;688076;28;1261;-67
2023/07/22 00:40:06;;;;;;;8.10;5.10;;;;;;;10.66;100.00;100617.94;683712;28;4539;-68
2023/07/22 00:40:26;;;;;;;8.07;5.50;;;;;;;10.65;100.00;100619.69;684867;28;826;-68
2023/07/22 00:40:47;;;;;;;8.27;5.53;;;;;;;10.76;100.00;100622.25;687205;28;1173;-68
2023/07/22 00:41:08;;;;;;;8.67;5.67;;;;;;;10.76;100.00;100626.59;684068;28;1471;-68
2023/07/22 00:41:28;;;;;;;8.88;5.22;;;;;;;10.73;100.00;100622.28;682958;28;783;-68
2023/07/22 00:41:49;;;;;;;9.25;5.22;;;;;;;10.73;100.00;100617.03;685645;28;990;-69
2023/07/22 00:42:09;;;;;;;9.40;5.45;;;;;;;10.76;100.00;100621.34;685875;28;871;-68
2023/07/22 00:42:30;;;;;;;8.53;5.13;;;;;;;10.73;100.00;100617.91;687392;28;1333;-68
2023/07/22 00:42:50;;;;;;;8.30;5.27;;;;;;;10.69;100.00;100616.19;684034;28;1677;-68
2023/07/22 00:43:11;;;;;;;8.07;4.90;;;;;;;10.68;100.00;100619.66;683582;28;4654;-68
2023/07/22 00:43:31;;;;;;;8.53;5.00;;;;;;;10.73;100.00;100622.28;684163;28;1305;-68
2023/07/22 00:43:52;;;;;;;8.85;5.18;;;;;;;10.74;100.00;100616.13;682636;28;1625;-68
2023/07/22 00:44:13;;;;;;;9.77;5.53;;;;;;;10.72;100.00;100620.53;682822;29;1027;-68
2023/07/22 00:44:33;;;;;;;8.13;5.50;;;;;;;10.67;100.00;100615.31;681993;29;1985;-68
2023/07/22 00:44:54;;;;;;;8.73;5.30;;;;;;;10.67;100.00;100617.06;684059;28;1466;-68
2023/07/22 00:45:14;;;;;;;8.60;5.05;;;;;;;10.70;100.00;100611.81;685571;28;798;-68
2023/07/22 00:45:34;;;;;;;8.70;5.30;;;;;;;10.72;100.00;100620.53;684142;28;936;-68
2023/07/22 00:45:55;;;;;;;8.43;5.73;;;;;;;10.74;100.00;100610.91;682709;28;4525;-68
2023/07/22 00:46:15;;;;;;;9.25;5.40;;;;;;;10.76;100.00;100622.25;688160;28;1094;-68
2023/07/22 00:46:35;;;;;;;7.43;4.63;;;;;;;10.80;100.00;100613.50;684843;28;2267;-68
2023/07/22 00:46:57;;;;;;;7.37;4.87;;;;;;;10.78;100.00;100615.25;683915;28;1640;-68
2023/07/22 00:47:19;;;;;;;8.82;5.30;;;;;;;10.75;100.00;100615.25;685012;28;727;-68
2023/07/22 00:47:40;;;;;;;8.05;4.93;;;;;;;10.78;100.00;100619.63;683792;28;1858;-68
2023/07/22 00:48:02;;;;;;;7.90;5.15;;;;;;;10.77;100.00;100617.88;685342;28;1532;-68
2023/07/22 00:48:23;;;;;;;8.15;4.85;;;;;;;10.74;100.00;100613.53;685316;28;1193;-68
2023/07/22 00:48:44;;;;;;;9.47;5.23;;;;;;;10.72;100.00;100616.16;683426;28;1447;-68
2023/07/22 00:49:07;;;;;;;8.52;4.95;;;;;;;10.73;100.00;100617.03;683621;28;5235;-68
2023/07/22 00:49:29;;;;;;;9.05;4.95;;;;;;;10.75;100.00;100620.50;683483;28;837;-68
2023/07/22 00:49:51;;;;;;;12.48;5.35;;;;;;;10.80;100.00;100617.84;684434;28;1568;-68
2023/07/22 00:50:11;;;;;;;7.43;5.00;;;;;;;10.76;100.00;100617.00;688891;28;1272;-68
2023/07/22 00:50:33;;;;;;;8.40;4.95;;;;;;;10.75;100.00;100611.78;690281;28;928;-68
2023/07/22 00:50:53;;;;;;;8.33;4.97;;;;;;;10.78;100.00;100617.84;687235;28;1237;-68
2023/07/22 00:51:14;;;;;;;7.60;4.65;;;;;;;10.78;100.00;100615.25;687981;28;810;-68
2023/07/22 00:51:35;;;;;;;7.43;4.75;;;;;;;10.79;100.00;100622.22;684636;28;1232;-68
2023/07/22 00:52:00;;;;;;;7.67;5.20;;;;;;;10.81;100.00;100620.44;683647;28;4348;-68
2023/07/22 00:52:20;;;;;;;8.07;5.10;;;;;;;10.85;100.00;100619.53;680964;29;1385;-68
2023/07/22 00:52:41;;;;;;;8.30;5.07;;;;;;;10.85;100.00;100621.31;682548;28;1114;-68
2023/07/22 00:53:01;;;;;;;8.55;5.00;;;;;;;10.86;100.00;100623.06;683852;28;1417;-68
2023/07/22 00:53:22;;;;;;;8.80;5.07;;;;;;;10.84;100.00;100614.31;688353;28;1128;-68
2023/07/22 00:53:42;;;;;;;8.25;5.10;;;;;;;10.87;100.00;100617.81;688178;28;1293;-68
2023/07/22 00:54:04;;;;;;;7.90;4.87;;;;;;;10.86;100.00;100620.44;684418;28;1473;-68
2023/07/22 00:54:25;;;;;;;7.93;4.75;;;;;;;10.79;100.00;100616.97;685393;28;1398;-68
2023/07/22 00:54:45;;;;;;;8.43;4.97;;;;;;;10.78;100.00;100620.47;682747;28;1287;-68
2023/07/22 00:55:07;;;;;;;8.23;5.05;;;;;;;10.81;100.00;100616.97;679516;28;4318;-68
2023/07/22 00:55:27;;;;;;;7.70;4.57;;;;;;;10.79;100.00;100621.34;681192;29;810;-68
2023/07/22 00:55:48;;;;;;;8.30;5.00;;;;;;;10.78;100.00;100617.00;682335;28;1342;-68
2023/07/22 00:56:08;;;;;;;8.70;5.00;;;;;;;10.79;100.00;100616.13;679215;29;1487;-68
2023/07/22 00:56:35;;;;;;;7.55;4.88;;;;;;;10.79;100.00;100610.91;683119;28;881;-68
2023/07/22 00:56:57;;;;;;;7.78;5.15;;;;;;;10.80;100.00;100613.50;686522;28;1538;-68
2023/07/22 00:57:18;;;;;;;8.60;5.20;;;;;;;10.75;100.00;100617.88;687744;28;1254;-68
2023/07/22 00:57:39;;;;;;;7.90;4.72;;;;;;;10.72;100.00;100616.16;688251;28;1007;-68
2023/07/22 00:57:59;;;;;;;8.60;4.97;;;;;;;10.70;100.00;100609.19;687653;28;4468;-68
2023/07/22 00:58:20;;;;;;;8.83;5.47;;;;;;;10.70;100.00;100614.41;689770;28;1054;-68
2023/07/22 00:58:41;;;;;;;7.28;5.13;;;;;;;10.69;100.00;100612.72;688145;28;817;-68
2023/07/22 00:59:02;;;;;;;7.30;4.90;;;;;;;10.69;100.00;100610.94;687156;28;1663;-69
2023/07/22 00:59:22;;;;;;;8.00;5.00;;;;;;;10.69;100.00;100615.31;687642;28;968;-68
2023/07/22 00:59:43;;;;;;;8.25;5.20;;;;;;;10.71;100.00;100613.53;685232;28;1357;-68
2023/07/22 01:00:05;;;;;;;7.95;5.10;;;;;;;10.72;100.00;100612.69;684138;28;1497;-68
2023/07/22 01:00:26;;;;;;;7.97;4.97;;;;;;;10.71;100.00;100616.16;685238;28;862;-68
2023/07/22 01:00:47;;;;;;;9.00;5.23;;;;;;;10.67;100.00;100611.84;688527;28;871;-68
2023/07/22 01:01:07;;;;;;;7.95;4.97;;;;;;;10.67;100.00;100611.84;689095;28;4316;-68
2023/07/22 01:01:28;;;;;;;8.53;5.10;;;;;;;10.71;100.00;100613.53;689974;28;842;-68
2023/07/22 01:01:48;;;;;;;8.75;5.43;;;;;;;10.73;100.00;100614.41;687131;28;1268;-68
2023/07/22 01:02:09;;;;;;;8.13;5.30;;;;;;;10.72;100.00;100610.91;684650;28;1449;-68
2023/07/22 01:02:30;;;;;;;8.45;5.20;;;;;;;10.72;100.00;100618.75;686253;28;1133;-68
2023/07/22 01:02:50;;;;;;;8.07;5.17;;;;;;;10.76;100.00;100618.75;686947;28;1522;-68
2023/07/22 01:03:10;;;;;;;8.90;5.57;;;;;;;10.73;100.00;100609.19;685371;28;1149;-68
2023/07/22 01:03:31;;;;;;;8.97;5.30;;;;;;;10.72;100.00;100610.06;685062;28;1320;-68
2023/07/22 01:03:51;;;;;;;8.10;4.97;;;;;;;10.72;100.00;100612.69;686405;28;4346;-69
2023/07/22 01:04:16;;;;;;;9.23;5.20;;;;;;;10.71;100.00;100616.16;688005;28;873;-68
2023/07/22 01:04:36;;;;;;;8.05;5.43;;;;;;;10.69;100.00;100615.31;685605;28;1915;-69
2023/07/22 01:04:57;;;;;;;8.03;5.10;;;;;;;10.67;100.00;100609.22;687752;28;1560;-68
2023/07/22 01:05:18;;;;;;;8.40;5.13;;;;;;;10.68;100.00;100618.81;687446;28;1135;-69
2023/07/22 01:05:39;;;;;;;8.52;5.32;;;;;;;10.66;100.00;100604.84;687435;28;1229;-68
2023/07/22 01:06:00;;;;;;;7.75;4.82;;;;;;;10.65;100.00;100606.63;684420;28;1434;-69
2023/07/22 01:06:21;;;;;;;7.95;5.00;;;;;;;10.65;100.00;100613.59;678823;29;1416;-68
2023/07/22 01:06:44;;;;;;;7.57;5.00;;;;;;;10.67;100.00;100611.84;679511;29;1609;-68
2023/07/22 01:07:08;;;;;;;8.50;5.10;;;;;;;10.69;100.00;100610.09;680844;28;4452;-68
2023/07/22 01:07:29;;;;;;;8.20;5.05;;;;;;;10.72;100.00;100615.28;681401;29;961;-68
2023/07/22 01:07:50;;;;;;;8.60;4.90;;;;;;;10.69;100.00;100610.94;682040;28;809;-68
2023/07/22 01:08:11;;;;;;;8.48;5.13;;;;;;;10.65;100.00;100610.97;683498;28;1196;-69
2023/07/22 01:08:32;;;;;;;7.73;5.30;;;;;;;10.63;100.00;100612.72;686894;28;1008;-69
2023/07/22 01:08:52;;;;;;;7.55;5.20;;;;;;;10.62;100.00;100613.59;682972;28;1832;-68
2023/07/22 01:09:13;;;;;;;8.80;5.13;;;;;;;10.66;100.00;100607.47;681169;28;1198;-68
2023/07/22 01:09:41;;;;;;;8.10;5.47;;;;;;;10.69;100.00;100610.09;680784;29;1158;-68
2023/07/22 01:10:01;;;;;;;8.82;5.30;;;;;;;10.71;100.00;100616.16;681619;28;4330;-68
2023/07/22 01:10:22;;;;;;;8.90;5.40;;;;;;;10.69;100.00;100613.56;682205;28;1267;-68
2023/07/22 01:10:42;;;;;;;9.13;5.43;;;;;;;10.70;100.00;100617.03;683446;28;936;-69
2023/07/22 01:11:03;;;;;;;8.53;5.20;;;;;;;10.70;100.00;100619.66;684736;28;1497;-68
2023/07/22 01:11:25;;;;;;;8.73;5.55;;;;;;;10.72;100.00;100616.16;686148;28;1023;-69
2023/07/22 01:11:46;;;;;;;8.57;5.15;;;;;;;10.75;100.00;100614.41;685653;28;988;-68
2023/07/22 01:12:07;;;;;;;8.73;5.07;;;;;;;10.78;100.00;100614.38;684926;28;1489;-68
2023/07/22 01:12:27;;;;;;;9.70;5.38;;;;;;;10.76;100.00;100610.91;689383;28;1047;-68
2023/07/22 01:12:48;;;;;;;9.40;5.33;;;;;;;10.75;100.00;100611.78;690281;28;3151;-69
2023/07/22 01:13:08;;;;;;;9.05;5.30;;;;;;;10.74;100.00;100616.13;688543;28;4336;-69
2023/07/22 01:13:28;;;;;;;9.00;5.30;;;;;;;10.72;100.00;100621.38;690799;28;947;-68
2023/07/22 01:13:49;;;;;;;9.53;5.37;;;;;;;10.75;100.00;100620.50;690969;28;1047;-69
2023/07/22 01:14:09;;;;;;;9.40;5.33;;;;;;;10.73;100.00;100617.91;689471;28;1544;-68
2023/07/22 01:14:29;;;;;;;8.30;5.03;;;;;;;10.69;100.00;100610.94;690437;28;1285;-68
2023/07/22 01:14:50;;;;;;;8.38;4.97;;;;;;;10.68;100.00;100614.44;690599;28;1252;-68
2023/07/22 01:15:11;;;;;;;8.57;4.97;;;;;;;10.71;100.00;100618.78;687499;28;1391;-68
2023/07/22 01:15:32;;;;;;;9.95;5.18;;;;;;;10.72;100.00;100612.69;688642;28;1296;-68
2023/07/22 01:15:53;;;;;;;8.98;5.50;;;;;;;10.73;100.00;100611.81;687689;28;4308;-68
2023/07/22 01:16:13;;;;;;;8.27;5.40;;;;;;;10.75;100.00;100617.88;685268;28;1180;-68
2023/07/22 01:16:34;;;;;;;8.07;4.93;;;;;;;10.75;100.00;100620.50;688015;28;821;-68
2023/07/22 01:16:54;;;;;;;8.15;5.13;;;;;;;10.74;100.00;100613.53;683232;28;1576;-68
2023/07/22 01:17:15;;;;;;;8.93;5.38;;;;;;;10.73;100.00;100611.81;682201;28;1091;-68
2023/07/22 01:17:37;;;;;;;8.30;4.80;;;;;;;10.76;100.00;100617.00;682547;29;1428;-68
2023/07/22 01:18:01;;;;;;;9.02;5.20;;;;;;;10.76;100.00;100611.78;680640;28;1471;-68
2023/07/22 01:18:21;;;;;;;8.40;5.18;;;;;;;10.75;100.00;100612.66;681727;28;1488;-69
2023/07/22 01:18:42;;;;;;;9.00;5.00;;;;;;;10.74;100.00;100605.69;680821;29;774;-69
2023/07/22 01:19:04;;;;;;;7.60;4.85;;;;;;;10.79;100.00;100618.75;680986;28;4536;-68
2023/07/22 01:19:25;;;;;;;8.63;4.95;;;;;;;10.81;100.00;100617.81;686039;28;1316;-68
2023/07/22 01:19:47;;;;;;;8.73;5.00;;;;;;;10.84;100.00;100614.31;687585;28;1531;-68
2023/07/22 01:20:09;;;;;;;7.38;4.70;;;;;;;10.82;100.00;100609.13;682362;28;1951;-68
2023/07/22 01:20:30;;;;;;;8.07;4.97;;;;;;;10.84;100.00;100620.44;683926;28;1062;-68
2023/07/22 01:20:51;;;;;;;8.40;5.20;;;;;;;10.82;100.00;100610.88;684513;28;1362;-68
2023/07/22 01:21:11;;;;;;;7.97;4.93;;;;;;;10.80;100.00;100613.50;684922;28;1129;-68
2023/07/22 01:21:33;;;;;;;9.00;5.27;;;;;;;10.82;100.00;100610.88;685315;28;1003;-69
2023/07/22 01:21:56;;;;;;;8.60;5.32;;;;;;;10.79;100.00;100616.13;686564;28;4436;-68
2023/07/22 01:22:17;;;;;;;9.00;5.22;;;;;;;10.79;100.00;100613.50;687800;28;1071;-68
2023/07/22 01:22:38;;;;;;;7.90;4.95;;;;;;;10.79;100.00;100616.13;687181;28;1169;-69
2023/07/22 01:22:59;;;;;;;8.07;5.00;;;;;;;10.79;100.00;100616.97;685660;28;1457;-69
2023/07/22 01:23:19;;;;;;;7.47;5.10;;;;;;;10.79;100.00;100611.75;689658;28;774;-69
2023/07/22 01:23:39;;;;;;;8.43;5.23;;;;;;;10.79;100.00;100606.53;688479;28;861;-68
2023/07/22 01:24:00;;;;;;;8.55;5.10;;;;;;;10.80;100.00;100610.88;688023;28;1560;-69
2023/07/22 01:24:21;;;;;;;7.90;5.30;;;;;;;10.81;100.00;100603.91;689670;28;913;-69
2023/07/22 01:24:42;;;;;;;9.20;5.28;;;;;;;10.80;100.00;100608.28;689976;28;2004;-68
2023/07/22 01:25:03;;;;;;;8.20;5.15;;;;;;;10.79;100.00;100603.91;683323;28;4441;-68
2023/07/22 01:25:23;;;;;;;7.70;5.20;;;;;;;10.81;100.00;100615.22;683343;28;1169;-68
2023/07/22 01:25:44;;;;;;;9.03;5.23;;;;;;;10.79;100.00;100603.91;684264;28;1236;-69
2023/07/22 01:26:05;;;;;;;7.68;4.72;;;;;;;10.79;100.00;100606.53;684019;28;1445;-69
2023/07/22 01:26:26;;;;;;;9.02;5.07;;;;;;;10.80;100.00;100612.63;687001;28;964;-68
2023/07/22 01:26:47;;;;;;;8.57;5.10;;;;;;;10.80;100.00;100608.28;686198;28;948;-69
2023/07/22 01:27:09;;;;;;;8.23;5.50;;;;;;;10.78;100.00;100599.56;683962;28;1627;-69
2023/07/22 01:27:30;;;;;;;7.68;4.82;;;;;;;10.78;100.00;100610.00;686015;28;1143;-68
2023/07/22 01:27:51;;;;;;;7.50;4.82;;;;;;;10.79;100.00;100600.44;685116;28;4296;-69
2023/07/22 01:28:11;;;;;;;7.72;5.25;;;;;;;10.77;100.00;100605.66;687724;28;786;-69
2023/07/22 01:28:35;;;;;;;7.23;4.70;;;;;;;10.81;100.00;100603.91;685376;28;1130;-68
2023/07/22 01:29:04;;;;;;;7.88;4.90;;;;;;;10.82;100.00;100605.63;682698;28;1596;-69
2023/07/22 01:29:25;;;;;;;8.68;5.28;;;;;;;10.85;100.00;100616.06;682506;29;910;-68
2023/07/22 01:29:45;;;;;;;7.93;4.93;;;;;;;10.84;100.00;100606.47;684504;28;904;-68
2023/07/22 01:30:09;;;;;;;7.90;4.80;;;;;;;10.82;100.00;100598.66;681090;28;1506;-68
2023/07/22 01:30:30;;;;;;;8.65;5.18;;;;;;;10.83;100.00;100602.16;685196;28;1488;-69
2023/07/22 01:30:52;;;;;;;8.50;4.97;;;;;;;10.81;100.00;100599.53;685089;28;4349;-69
2023/07/22 01:31:12;;;;;;;8.52;4.72;;;;;;;10.82;100.00;100601.28;688592;28;956;-68
2023/07/22 01:31:36;;;;;;;8.30;4.80;;;;;;;10.82;100.00;100603.88;688007;28;844;-69
2023/07/22 01:31:56;;;;;;;7.47;4.85;;;;;;;10.85;100.00;100606.47;684874;28;1794;-68
2023/07/22 01:32:17;;;;;;;7.43;4.80;;;;;;;10.86;100.00;100602.97;687886;28;853;-69
2023/07/22 01:32:38;;;;;;;7.63;4.82;;;;;;;10.89;100.00;100602.94;688664;28;1163;-69
2023/07/22 01:32:58;;;;;;;8.27;5.28;;;;;;;10.90;100.00;100602.09;688799;28;1665;-68
2023/07/22 01:33:19;;;;;;;8.13;5.18;;;;;;;10.89;100.00;100608.19;688318;28;1216;-69
2023/07/22 01:33:39;;;;;;;8.63;5.30;;;;;;;10.88;100.00;100606.47;690328;28;1343;-69
2023/07/22 01:34:00;;;;;;;9.23;5.55;;;;;;;10.88;100.00;100611.69;682903;28;4460;-68
2023/07/22 01:34:21;;;;;;;8.80;4.97;;;;;;;10.88;100.00;100605.59;684966;28;1147;-69
2023/07/22 01:34:42;;;;;;;7.88;5.00;;;;;;;10.91;100.00;100605.59;684108;28;1284;-68
2023/07/22 01:35:03;;;;;;;8.50;5.07;;;;;;;10.93;100.00;100609.03;683303;28;1596;-68
2023/07/22 01:35:23;;;;;;;8.15;4.72;;;;;;;10.93;100.00;100598.59;687844;28;885;-69
2023/07/22 01:35:43;;;;;;;7.93;4.87;;;;;;;10.92;100.00;100606.44;690997;28;857;-69
2023/07/22 01:36:04;;;;;;;7.72;4.90;;;;;;;10.92;100.00;100607.31;689418;28;1456;-69
2023/07/22 01:36:25;;;;;;;8.00;4.80;;;;;;;10.95;100.00;100606.41;687495;28;1806;-69
2023/07/22 01:36:49;;;;;;;8.48;5.00;;;;;;;10.97;100.00;100607.28;681191;28;1593;-69
2023/07/22 01:37:10;;;;;;;8.85;5.20;;;;;;;11.00;100.00;100604.63;680687;28;4309;-68
2023/07/22 01:37:31;;;;;;;7.75;4.90;;;;;;;10.99;100.00;100605.50;681034;28;1257;-68
2023/07/22 01:37:52;;;;;;;9.48;5.55;;;;;;;10.97;100.00;100612.53;680083;28;1494;-69
2023/07/22 01:38:12;;;;;;;9.87;4.97;;;;;;;10.95;100.00;100604.69;680194;28;1532;-68
2023/07/22 01:38:33;;;;;;;8.45;5.03;;;;;;;10.93;100.00;100609.03;680371;29;1137;-69
2023/07/22 01:38:54;;;;;;;8.32;5.18;;;;;;;10.95;100.00;100603.81;679299;28;5470;-69
2023/07/22 01:39:15;;;;;;;8.10;4.90;;;;;;;10.94;100.00;100604.66;679945;29;1457;-68